createdAt,value
2017-08-25T00:02:01.860Z,93.00
2017-08-25T00:04:29.443Z,93.10
2017-08-25T00:06:57.011Z,93.40
2017-08-25T00:09:24.592Z,93.40
2017-08-25T00:11:52.173Z,93.60
2017-08-25T00:14:19.779Z,93.90
2017-08-25T00:16:47.363Z,94.00
2017-08-25T00:19:15.251Z,94.10
2017-08-25T00:21:42.828Z,94.10
2017-08-25T00:24:10.410Z,94.30
2017-08-25T00:26:37.988Z,94.50
2017-08-25T00:29:05.564Z,94.70
2017-08-25T00:31:33.163Z,94.80
2017-08-25T00:34:00.732Z,95.00
2017-08-25T00:36:28.331Z,95.00
2017-08-25T00:38:55.887Z,94.90
2017-08-25T00:41:23.778Z,95.00
2017-08-25T00:43:51.359Z,94.90
2017-08-25T00:46:18.923Z,95.00
2017-08-25T00:48:46.507Z,95.10
2017-08-25T00:51:14.838Z,95.20
2017-08-25T00:53:42.429Z,95.20
2017-08-25T00:56:10.783Z,95.40
2017-08-25T00:58:38.366Z,95.70
2017-08-25T01:01:06.719Z,95.30
2017-08-25T01:03:34.680Z,95.30
2017-08-25T01:06:02.247Z,95.30
2017-08-25T01:08:29.837Z,95.50
2017-08-25T01:10:57.444Z,95.70
2017-08-25T01:13:25.032Z,95.80
2017-08-25T01:15:52.613Z,95.80
2017-08-25T01:18:21.012Z,95.80
2017-08-25T01:20:48.669Z,95.80
2017-08-25T01:23:16.255Z,95.80
2017-08-25T01:25:43.865Z,95.90
2017-08-25T01:28:11.473Z,96.20
2017-08-25T01:30:39.095Z,96.20
2017-08-25T01:33:06.716Z,96.20
2017-08-25T01:35:34.313Z,96.40
2017-08-25T01:38:01.941Z,96.40
2017-08-25T01:40:29.580Z,96.40
2017-08-25T01:42:57.458Z,96.50
2017-08-25T01:45:25.029Z,96.40
2017-08-25T01:47:52.614Z,96.40
2017-08-25T01:50:20.204Z,96.70
2017-08-25T01:52:47.788Z,96.70
2017-08-25T01:55:15.375Z,96.90
2017-08-25T01:57:43.014Z,97.00
2017-08-25T02:00:10.601Z,97.20
2017-08-25T02:02:38.235Z,96.90
2017-08-25T02:05:06.119Z,96.90
2017-08-25T02:07:33.708Z,97.40
2017-08-25T02:10:01.287Z,97.40
2017-08-25T02:12:28.892Z,97.50
2017-08-25T02:14:56.471Z,97.70
2017-08-25T02:17:24.115Z,97.80
2017-08-25T02:19:51.795Z,97.70
2017-08-25T02:22:19.444Z,97.80
2017-08-25T02:24:47.070Z,98.00
2017-08-25T02:27:14.959Z,98.10
2017-08-25T02:29:42.538Z,98.40
2017-08-25T02:32:10.880Z,98.90
2017-08-25T02:34:38.478Z,98.70
2017-08-25T02:37:06.048Z,98.80
2017-08-25T02:39:34.409Z,98.90
2017-08-25T02:42:02.001Z,98.90
2017-08-25T02:44:29.581Z,99.20
2017-08-25T02:46:57.163Z,98.80
2017-08-25T02:49:24.749Z,99.00
2017-08-25T02:51:53.090Z,99.10
2017-08-25T02:54:20.673Z,99.10
2017-08-25T02:56:48.270Z,99.10
2017-08-25T02:59:15.847Z,98.70
2017-08-25T03:01:43.454Z,98.80
2017-08-25T03:04:11.035Z,98.60
2017-08-25T03:06:38.649Z,98.50
2017-08-25T03:09:06.225Z,98.70
2017-08-25T03:11:33.819Z,98.70
2017-08-25T03:14:01.409Z,98.90
2017-08-25T03:16:28.991Z,98.70
2017-08-25T03:18:56.606Z,98.90
2017-08-25T03:21:24.185Z,98.90
2017-08-25T03:23:51.825Z,98.70
2017-08-25T03:26:19.414Z,98.70
2017-08-25T03:28:47.012Z,98.90
2017-08-25T03:31:14.601Z,98.90
2017-08-25T03:33:42.180Z,99.20
2017-08-25T03:36:09.741Z,99.30
2017-08-25T03:38:37.643Z,99.40
2017-08-25T03:41:05.248Z,99.40
2017-08-25T03:43:32.832Z,99.40
2017-08-25T03:46:00.503Z,99.20
2017-08-25T03:48:28.081Z,99.20
2017-08-25T03:50:55.706Z,99.20
2017-08-25T03:53:23.304Z,99.40
2017-08-25T03:55:50.916Z,99.50
2017-08-25T03:58:18.495Z,99.60
2017-08-25T04:00:46.100Z,99.70
2017-08-25T04:03:14.582Z,99.70
2017-08-25T04:05:42.539Z,99.70
2017-08-25T04:08:10.907Z,99.70
2017-08-25T04:10:38.489Z,99.70
2017-08-25T04:13:06.106Z,99.60
2017-08-25T04:15:33.676Z,99.60
2017-08-25T04:18:01.278Z,99.80
2017-08-25T04:20:28.879Z,99.60
2017-08-25T04:22:56.465Z,99.70
2017-08-25T04:25:24.047Z,99.80
2017-08-25T04:27:52.402Z,99.90
2017-08-25T04:30:20.017Z,99.90
2017-08-25T04:32:47.899Z,99.70
2017-08-25T04:35:15.503Z,99.60
2017-08-25T04:37:43.863Z,99.70
2017-08-25T04:40:11.464Z,99.70
2017-08-25T04:42:39.043Z,99.60
2017-08-25T04:45:06.946Z,99.50
2017-08-25T04:47:35.406Z,99.50
2017-08-25T04:50:03.010Z,99.60
2017-08-25T04:52:30.714Z,99.50
2017-08-25T04:54:58.294Z,99.40
2017-08-25T04:57:25.915Z,99.60
2017-08-25T04:59:54.260Z,99.70
2017-08-25T05:02:21.858Z,99.60
2017-08-25T05:04:49.431Z,99.30
2017-08-25T05:07:17.312Z,99.40
2017-08-25T05:09:44.977Z,99.30
2017-08-25T05:12:12.577Z,99.30
2017-08-25T05:14:40.159Z,99.30
2017-08-25T05:17:07.764Z,99.00
2017-08-25T05:19:35.387Z,98.90
2017-08-25T05:22:02.980Z,99.10
2017-08-25T05:24:30.610Z,98.60
2017-08-25T05:26:58.209Z,98.50
2017-08-25T05:29:25.812Z,98.40
2017-08-25T05:31:53.389Z,98.30
2017-08-25T05:34:21.271Z,98.40
2017-08-25T05:36:48.839Z,98.30
2017-08-25T05:39:17.189Z,98.40
2017-08-25T05:41:44.791Z,98.40
2017-08-25T05:44:13.142Z,98.30
2017-08-25T05:46:40.760Z,98.30
2017-08-25T05:49:08.345Z,98.30
2017-08-25T05:51:35.915Z,97.80
2017-08-25T05:54:03.536Z,97.20
2017-08-25T05:56:32.179Z,97.40
2017-08-25T05:58:59.757Z,97.40
2017-08-25T06:01:28.136Z,96.60
2017-08-25T06:03:55.732Z,96.80
2017-08-25T06:06:23.336Z,96.10
2017-08-25T06:08:50.942Z,96.40
2017-08-25T06:11:18.535Z,96.50
2017-08-25T06:13:46.512Z,96.20
2017-08-25T06:16:14.115Z,95.80
2017-08-25T06:18:41.696Z,96.20
2017-08-25T06:21:09.280Z,95.70
2017-08-25T06:23:36.890Z,95.80
2017-08-25T06:26:04.519Z,95.80
2017-08-25T06:28:32.091Z,95.70
2017-08-25T06:30:59.671Z,94.40
2017-08-25T06:33:27.248Z,93.70
2017-08-25T06:35:55.170Z,93.20
2017-08-25T06:38:22.764Z,92.20
2017-08-25T06:40:51.144Z,91.40
2017-08-25T06:43:18.774Z,91.40
2017-08-25T06:45:46.366Z,91.50
2017-08-25T06:48:13.977Z,91.00
2017-08-25T06:50:41.629Z,90.00
2017-08-25T06:53:10.479Z,90.30
2017-08-25T06:55:38.074Z,90.50
2017-08-25T06:58:05.652Z,90.50
2017-08-25T07:00:34.082Z,90.40
2017-08-25T07:03:01.657Z,90.30
2017-08-25T07:05:29.265Z,90.00
2017-08-25T07:07:57.671Z,87.70
2017-08-25T07:10:25.311Z,88.60
2017-08-25T07:12:52.947Z,87.30
2017-08-25T07:15:20.907Z,86.00
2017-08-25T07:17:48.527Z,86.30
2017-08-25T07:20:16.117Z,85.00
2017-08-25T07:22:43.739Z,82.90
2017-08-25T07:25:11.330Z,81.40
2017-08-25T07:27:38.920Z,81.70
2017-08-25T07:30:06.501Z,81.00
2017-08-25T07:32:34.856Z,80.00
2017-08-25T07:35:02.439Z,80.00
2017-08-25T07:37:30.031Z,79.20
2017-08-25T07:39:57.612Z,78.10
2017-08-25T07:42:25.231Z,75.50
2017-08-25T07:44:52.816Z,76.20
2017-08-25T07:47:20.407Z,77.20
2017-08-25T07:49:48.017Z,75.90
2017-08-25T07:52:15.600Z,73.90
2017-08-25T07:54:43.195Z,72.10
2017-08-25T07:57:10.781Z,73.20
2017-08-25T07:59:38.643Z,72.70
2017-08-25T08:02:06.236Z,72.90
2017-08-25T08:04:33.809Z,71.20
2017-08-25T08:07:01.452Z,71.70
2017-08-25T08:09:29.129Z,71.20
2017-08-25T08:11:56.760Z,70.90
2017-08-25T08:14:24.352Z,70.10
2017-08-25T08:16:52.234Z,69.80
2017-08-25T08:19:19.827Z,69.80
2017-08-25T08:21:48.170Z,68.80
2017-08-25T08:24:15.820Z,68.80
2017-08-25T08:26:43.405Z,68.10
2017-08-25T08:29:11.010Z,67.00
2017-08-25T08:31:38.612Z,66.80
2017-08-25T08:34:06.601Z,66.30
2017-08-25T08:36:39.846Z,67.00
2017-08-25T08:39:07.734Z,66.50
2017-08-25T08:41:35.350Z,65.40
2017-08-25T08:44:03.131Z,65.60
2017-08-25T08:46:30.740Z,65.10
2017-08-25T08:48:58.322Z,64.40
2017-08-25T08:51:25.968Z,65.00
2017-08-25T08:53:53.556Z,63.20
2017-08-25T08:56:21.475Z,61.10
2017-08-25T08:58:49.054Z,61.40
2017-08-25T09:01:16.649Z,58.40
2017-08-25T09:03:44.308Z,57.80
2017-08-25T09:06:17.512Z,57.30
2017-08-25T09:08:45.082Z,58.40
2017-08-25T09:11:12.645Z,59.20
2017-08-25T09:13:40.233Z,57.20
2017-08-25T09:16:07.817Z,56.90
2017-08-25T09:18:35.910Z,56.00
2017-08-25T09:21:04.340Z,56.00
2017-08-25T09:23:32.018Z,56.00
2017-08-25T09:25:59.710Z,56.00
2017-08-25T09:28:27.294Z,56.70
2017-08-25T09:30:55.187Z,55.00
2017-08-25T09:33:23.600Z,52.70
2017-08-25T09:35:51.202Z,52.40
2017-08-25T09:38:18.794Z,52.60
2017-08-25T09:40:46.386Z,51.30
2017-08-25T09:43:14.208Z,51.80
2017-08-25T09:45:41.803Z,50.90
2017-08-25T09:48:10.197Z,50.50
2017-08-25T09:50:37.785Z,50.50
2017-08-25T09:53:05.397Z,50.00
2017-08-25T09:55:33.063Z,50.10
2017-08-25T09:58:00.987Z,50.30
2017-08-25T10:00:28.571Z,50.00
2017-08-25T10:02:56.136Z,49.60
2017-08-25T10:05:23.758Z,48.30
2017-08-25T10:07:51.342Z,48.10
2017-08-25T10:10:18.971Z,48.10
2017-08-25T10:12:46.574Z,48.00
2017-08-25T10:15:14.491Z,50.20
2017-08-25T10:17:42.077Z,47.00
2017-08-25T10:20:10.446Z,48.00
2017-08-25T10:22:38.069Z,48.00
2017-08-25T10:25:05.680Z,47.60
2017-08-25T10:27:34.050Z,46.30
2017-08-25T10:30:02.413Z,46.90
2017-08-25T10:32:30.062Z,46.90
2017-08-25T10:35:09.429Z,45.90
2017-08-25T10:37:49.079Z,46.30
2017-08-25T10:40:29.385Z,47.20
2017-08-25T10:43:09.291Z,47.20
2017-08-25T10:45:36.879Z,47.20
2017-08-25T10:48:04.448Z,46.50
2017-08-25T10:50:32.024Z,47.10
2017-08-25T10:52:59.630Z,47.50
2017-08-25T10:55:27.224Z,47.80
2017-08-25T10:57:54.856Z,46.30
2017-08-25T11:00:22.898Z,47.10
2017-08-25T11:02:50.488Z,46.70
2017-08-25T11:05:18.075Z,46.20
2017-08-25T11:07:45.687Z,46.20
2017-08-25T11:10:14.068Z,46.30
2017-08-25T11:12:41.691Z,46.30
2017-08-25T11:15:09.307Z,45.90
2017-08-25T11:17:37.162Z,45.60
2017-08-25T11:20:04.755Z,46.40
2017-08-25T11:22:32.346Z,44.80
2017-08-25T11:24:59.949Z,44.00
2017-08-25T11:27:27.541Z,45.40
2017-08-25T11:29:55.153Z,44.80
2017-08-25T11:32:22.759Z,44.70
2017-08-25T11:34:50.410Z,45.20
2017-08-25T11:37:17.985Z,45.10
2017-08-25T11:39:45.857Z,42.40
2017-08-25T11:42:13.450Z,42.00
2017-08-25T11:44:41.037Z,42.60
2017-08-25T11:47:09.447Z,41.70
2017-08-25T11:49:37.048Z,41.70
2017-08-25T11:52:05.417Z,41.90
2017-08-25T11:54:33.021Z,41.80
2017-08-25T11:57:00.617Z,41.70
2017-08-25T11:59:28.205Z,41.40
2017-08-25T12:01:56.874Z,42.80
2017-08-25T12:04:24.457Z,42.80
2017-08-25T12:06:52.058Z,42.10
2017-08-25T12:09:19.664Z,41.40
2017-08-25T12:11:47.274Z,40.00
2017-08-25T12:14:14.867Z,40.20
2017-08-25T12:16:42.480Z,39.30
2017-08-25T12:19:10.492Z,40.50
2017-08-25T12:21:38.101Z,38.30
2017-08-25T12:24:05.705Z,40.00
2017-08-25T12:26:33.304Z,39.70
2017-08-25T12:29:00.866Z,38.10
2017-08-25T12:31:29.220Z,38.70
2017-08-25T12:33:57.559Z,38.10
2017-08-25T12:36:25.156Z,38.00
2017-08-25T12:38:52.740Z,38.00
2017-08-25T12:41:20.591Z,37.50
2017-08-25T12:43:48.171Z,38.60
2017-08-25T12:46:15.754Z,40.00
2017-08-25T12:48:43.371Z,39.60
2017-08-25T12:51:10.969Z,39.60
2017-08-25T12:53:38.561Z,39.50
2017-08-25T12:56:06.131Z,38.80
2017-08-25T12:58:34.080Z,39.20
2017-08-25T13:01:01.673Z,38.60
2017-08-25T13:03:29.260Z,40.10
2017-08-25T13:05:56.873Z,37.90
2017-08-25T13:08:24.479Z,37.60
2017-08-25T13:10:52.089Z,37.80
2017-08-25T13:13:19.686Z,36.90
2017-08-25T13:15:47.286Z,36.60
2017-08-25T13:18:14.885Z,37.00
2017-08-25T13:20:42.817Z,37.20
2017-08-25T13:23:10.402Z,36.20
2017-08-25T13:25:37.998Z,35.30
2017-08-25T13:28:05.615Z,36.80
2017-08-25T13:30:33.217Z,36.00
2017-08-25T13:33:00.805Z,35.20
2017-08-25T13:35:28.434Z,35.20
2017-08-25T13:37:56.098Z,35.90
2017-08-25T13:40:23.707Z,36.90
2017-08-25T13:42:51.673Z,38.00
2017-08-25T13:45:19.287Z,36.00
2017-08-25T13:47:46.902Z,34.90
2017-08-25T13:50:14.513Z,35.40
2017-08-25T13:52:42.131Z,35.40
2017-08-25T13:55:10.489Z,35.30
2017-08-25T13:57:38.130Z,35.30
2017-08-25T14:00:06.051Z,33.40
2017-08-25T14:02:33.662Z,30.60
2017-08-25T14:05:01.251Z,29.40
2017-08-25T14:07:28.885Z,27.20
2017-08-25T14:09:56.496Z,25.20
2017-08-25T14:12:24.088Z,23.70
2017-08-25T14:14:51.663Z,24.10
2017-08-25T14:17:19.285Z,23.10
2017-08-25T14:19:46.873Z,22.80
2017-08-25T14:22:14.750Z,22.90
2017-08-25T14:24:42.342Z,23.00
2017-08-25T14:27:09.924Z,22.50
2017-08-25T14:29:37.516Z,22.00
2017-08-25T14:32:05.112Z,21.10
2017-08-25T14:34:33.491Z,19.30
2017-08-25T14:37:01.835Z,21.40
2017-08-25T14:39:29.416Z,21.40
2017-08-25T14:41:56.977Z,20.50
2017-08-25T14:44:24.898Z,20.90
2017-08-25T14:46:52.501Z,20.80
2017-08-25T14:49:20.104Z,20.80
2017-08-25T14:51:48.499Z,21.00
2017-08-25T14:54:16.099Z,21.00
2017-08-25T14:56:43.715Z,21.80
2017-08-25T14:59:11.322Z,21.80
2017-08-25T15:01:39.282Z,21.80
2017-08-25T15:04:06.856Z,21.90
2017-08-25T15:06:35.200Z,21.70
2017-08-25T15:09:02.785Z,21.70
2017-08-25T15:11:30.353Z,20.90
2017-08-25T15:13:57.959Z,20.70
2017-08-25T15:16:25.568Z,20.00
2017-08-25T15:18:53.935Z,17.50
2017-08-25T15:21:21.511Z,17.50
2017-08-25T15:23:49.462Z,17.60
2017-08-25T15:26:17.047Z,17.00
2017-08-25T15:28:44.624Z,17.90
2017-08-25T15:31:12.247Z,18.30
2017-08-25T15:33:39.844Z,19.40
2017-08-25T15:36:07.500Z,19.70
2017-08-25T15:38:35.338Z,18.90
2017-08-25T15:41:03.396Z,18.50
2017-08-25T15:43:31.201Z,18.50
2017-08-25T15:45:58.761Z,19.50
2017-08-25T15:48:26.420Z,20.40
2017-08-25T15:50:54.161Z,20.10
2017-08-25T15:53:21.766Z,19.50
2017-08-25T15:55:49.364Z,18.40
2017-08-25T15:58:16.975Z,18.60
2017-08-25T16:00:44.929Z,18.00
2017-08-25T16:03:12.595Z,17.20
2017-08-25T16:05:40.258Z,17.10
2017-08-25T16:08:08.119Z,17.90
2017-08-25T16:10:35.721Z,17.40
2017-08-25T16:13:03.338Z,17.20
2017-08-25T16:15:31.019Z,20.90
2017-08-25T16:17:58.624Z,24.10
2017-08-25T16:20:26.993Z,24.10
2017-08-25T16:22:54.562Z,24.00
2017-08-25T16:25:22.158Z,25.20
2017-08-25T16:27:49.752Z,26.00
2017-08-25T16:30:17.678Z,27.70
2017-08-25T16:32:45.274Z,29.20
2017-08-25T16:35:12.868Z,31.20
2017-08-25T16:37:41.222Z,32.50
2017-08-25T16:40:08.939Z,32.20
2017-08-25T16:42:36.555Z,32.80
2017-08-25T16:45:04.213Z,35.00
2017-08-25T16:47:32.262Z,35.50
2017-08-25T16:49:59.865Z,39.50
2017-08-25T16:52:27.475Z,37.30
2017-08-25T16:54:55.065Z,38.70
2017-08-25T16:57:22.678Z,36.80
2017-08-25T16:59:50.316Z,37.20
2017-08-25T17:02:17.910Z,37.80
2017-08-25T17:04:45.507Z,38.50
2017-08-25T17:07:13.884Z,42.00
2017-08-25T17:09:41.942Z,42.00
2017-08-25T17:12:09.677Z,41.60
2017-08-25T17:14:37.266Z,43.00
2017-08-25T17:17:04.976Z,42.40
2017-08-25T17:19:32.561Z,42.40
2017-08-25T17:22:00.943Z,46.90
2017-08-25T17:24:28.542Z,46.90
2017-08-25T17:26:56.160Z,46.20
2017-08-25T17:29:23.741Z,48.80
2017-08-25T17:31:51.348Z,49.20
2017-08-25T17:34:18.980Z,49.50
2017-08-25T17:36:46.577Z,50.30
2017-08-25T17:39:14.569Z,50.30
2017-08-25T17:41:42.514Z,51.30
2017-08-25T17:44:10.087Z,52.20
2017-08-25T17:46:37.679Z,53.00
2017-08-25T17:49:05.492Z,54.10
2017-08-25T17:51:33.557Z,54.30
2017-08-25T17:54:01.161Z,55.10
2017-08-25T17:56:28.748Z,55.40
2017-08-25T17:58:56.349Z,56.50
2017-08-25T18:01:24.116Z,56.60
2017-08-25T18:03:51.797Z,57.00
2017-08-25T18:06:19.388Z,57.80
2017-08-25T18:08:47.416Z,58.10
2017-08-25T18:11:15.000Z,59.10
2017-08-25T18:13:42.570Z,59.70
2017-08-25T18:16:10.162Z,60.20
2017-08-25T18:18:37.779Z,60.60
2017-08-25T18:21:05.445Z,61.90
2017-08-25T18:23:33.062Z,61.90
2017-08-25T18:26:00.651Z,62.50
2017-08-25T18:28:28.237Z,61.80
2017-08-25T18:30:56.174Z,62.80
2017-08-25T18:33:23.789Z,63.40
2017-08-25T18:35:51.427Z,62.90
2017-08-25T18:38:19.084Z,63.70
2017-08-25T18:40:46.665Z,63.80
2017-08-25T18:43:14.375Z,65.50
2017-08-25T18:45:42.014Z,65.50
2017-08-25T18:48:09.919Z,65.30
2017-08-25T18:50:37.509Z,64.50
2017-08-25T18:53:05.162Z,63.20
2017-08-25T18:55:33.535Z,65.00
2017-08-25T18:58:01.185Z,64.80
2017-08-25T19:00:29.598Z,65.00
2017-08-25T19:02:57.193Z,65.00
2017-08-25T19:05:25.130Z,64.70
2017-08-25T19:07:52.790Z,64.90
2017-08-25T19:10:20.470Z,65.40
2017-08-25T19:12:48.074Z,65.80
2017-08-25T19:15:15.692Z,66.50
2017-08-25T19:17:43.736Z,66.60
2017-08-25T19:20:11.347Z,67.40
2017-08-25T19:22:39.045Z,68.00
2017-08-25T19:25:07.443Z,68.20
2017-08-25T19:27:35.379Z,68.10
2017-08-25T19:30:02.993Z,68.10
2017-08-25T19:32:30.588Z,67.80
2017-08-25T19:34:58.191Z,69.00
2017-08-25T19:37:25.811Z,68.80
2017-08-25T19:39:53.429Z,68.20
2017-08-25T19:42:21.143Z,68.50
2017-08-25T19:44:48.757Z,69.30
2017-08-25T19:47:16.375Z,69.40
2017-08-25T19:49:43.979Z,69.50
2017-08-25T19:52:11.572Z,70.20
2017-08-25T19:54:39.521Z,70.60
2017-08-25T19:57:07.127Z,71.00
2017-08-25T19:59:34.804Z,71.20
2017-08-25T20:02:02.449Z,71.60
2017-08-25T20:04:30.508Z,72.30
2017-08-25T20:06:58.118Z,72.70
2017-08-25T20:09:25.725Z,73.00
2017-08-25T20:11:54.098Z,73.20
2017-08-25T20:14:21.713Z,73.10
2017-08-25T20:16:50.529Z,73.60
2017-08-25T20:19:18.133Z,74.00
2017-08-25T20:21:45.738Z,73.70
2017-08-25T20:24:13.398Z,74.60
2017-08-25T20:26:41.022Z,74.40
2017-08-25T20:29:08.627Z,74.10
2017-08-25T20:31:36.333Z,73.90
2017-08-25T20:34:03.964Z,74.10
2017-08-25T20:36:31.727Z,73.60
2017-08-25T20:39:00.381Z,75.90
2017-08-25T20:41:27.977Z,75.40
2017-08-25T20:43:55.753Z,75.40
2017-08-25T20:46:23.466Z,75.70
2017-08-25T20:48:51.061Z,75.70
2017-08-25T20:51:18.704Z,75.60
2017-08-25T20:53:46.299Z,75.70
2017-08-25T20:56:14.206Z,75.60
2017-08-25T20:58:41.793Z,75.70
2017-08-25T21:01:09.453Z,75.70
2017-08-25T21:03:37.051Z,76.00
2017-08-25T21:06:04.717Z,75.90
2017-08-25T21:08:32.315Z,77.10
2017-08-25T21:10:59.902Z,77.00
2017-08-25T21:13:27.505Z,77.40
2017-08-25T21:15:55.101Z,77.70
2017-08-25T21:18:22.730Z,78.10
2017-08-25T21:20:50.288Z,77.60
2017-08-25T21:23:18.201Z,78.00
2017-08-25T21:25:45.774Z,78.40
2017-08-25T21:28:13.388Z,79.10
2017-08-25T21:30:40.990Z,79.60
2017-08-25T21:33:09.330Z,80.00
2017-08-25T21:35:36.972Z,80.00
2017-08-25T21:38:04.594Z,80.30
2017-08-25T21:40:32.315Z,81.00
2017-08-25T21:42:59.892Z,81.80
2017-08-25T21:45:27.772Z,81.40
2017-08-25T21:47:55.356Z,82.00
2017-08-25T21:50:22.957Z,82.10
2017-08-25T21:52:50.553Z,81.70
2017-08-25T21:55:18.885Z,82.40
2017-08-25T21:57:46.481Z,82.40
2017-08-25T22:00:14.053Z,82.10
2017-08-25T22:02:42.680Z,82.80
2017-08-25T22:05:10.284Z,82.80
2017-08-25T22:07:37.851Z,83.80
2017-08-25T22:10:06.234Z,85.10
2017-08-25T22:12:34.562Z,85.60
2017-08-25T22:15:02.159Z,85.50
2017-08-25T22:17:29.733Z,86.40
2017-08-25T22:19:57.663Z,87.50
2017-08-25T22:22:25.235Z,87.10
2017-08-25T22:24:52.807Z,87.30
2017-08-25T22:27:20.398Z,87.80
2017-08-25T22:29:47.982Z,87.70
2017-08-25T22:32:15.554Z,87.90
2017-08-25T22:34:43.117Z,88.40
2017-08-25T22:37:10.693Z,88.60
2017-08-25T22:39:38.304Z,89.20
2017-08-25T22:42:06.217Z,89.30
2017-08-25T22:44:33.838Z,89.80
2017-08-25T22:47:01.418Z,90.20
2017-08-25T22:49:29.005Z,90.20
2017-08-25T22:51:56.582Z,90.30
2017-08-25T22:54:24.489Z,90.40
2017-08-25T22:56:52.074Z,90.60
2017-08-25T22:59:19.638Z,91.10
2017-08-25T23:01:47.233Z,90.70
2017-08-25T23:04:14.792Z,91.00
2017-08-25T23:06:42.378Z,90.90
2017-08-25T23:09:09.947Z,91.00
2017-08-25T23:11:37.819Z,90.80
2017-08-25T23:14:05.402Z,90.90
2017-08-25T23:16:32.967Z,91.20
2017-08-25T23:19:01.364Z,91.50
2017-08-25T23:21:28.955Z,91.40
2017-08-25T23:23:56.660Z,91.50
2017-08-25T23:26:24.283Z,91.40
2017-08-25T23:28:52.129Z,91.40
2017-08-25T23:31:19.705Z,91.30
2017-08-25T23:33:47.281Z,91.30
2017-08-25T23:36:14.881Z,91.30
2017-08-25T23:38:42.458Z,91.70
2017-08-25T23:41:10.048Z,91.70
2017-08-25T23:43:37.631Z,91.50
2017-08-25T23:46:05.217Z,91.60
2017-08-25T23:48:33.566Z,92.10
2017-08-25T23:51:01.518Z,92.10
2017-08-25T23:53:29.105Z,92.00
2017-08-25T23:55:56.688Z,91.90
2017-08-25T23:58:24.293Z,91.90
